createdAt,value
2024-04-30T00:00:16.064Z,22.91
2024-04-30T00:01:16.191Z,22.91
2024-04-30T00:02:16.271Z,22.90
2024-04-30T00:03:16.371Z,22.89
2024-04-30T00:04:16.497Z,22.90
2024-04-30T00:05:16.573Z,22.88
2024-04-30T00:06:16.691Z,22.87
2024-04-30T00:07:16.752Z,22.88
2024-04-30T00:08:16.850Z,22.88
2024-04-30T00:09:17.035Z,22.88
2024-04-30T00:10:17.095Z,22.90
2024-04-30T00:11:17.172Z,22.89
2024-04-30T00:12:17.255Z,22.89
2024-04-30T00:13:17.431Z,22.89
2024-04-30T00:14:17.463Z,22.89
2024-04-30T00:15:18.186Z,22.88
2024-04-30T00:16:17.675Z,22.89
2024-04-30T00:17:17.738Z,22.90
2024-04-30T00:18:17.837Z,22.90
2024-04-30T00:19:18.007Z,22.89
2024-04-30T00:20:18.067Z,22.90
2024-04-30T00:21:18.130Z,22.90
2024-04-30T00:22:18.282Z,22.89
2024-04-30T00:23:18.348Z,22.89
2024-04-30T00:24:18.431Z,22.88
2024-04-30T00:25:18.600Z,22.88
2024-04-30T00:26:18.620Z,22.88
2024-04-30T00:27:18.799Z,22.88
2024-04-30T00:28:18.929Z,22.87
2024-04-30T00:29:18.946Z,22.88
2024-04-30T00:30:19.043Z,22.88
2024-04-30T00:31:19.190Z,22.88
2024-04-30T00:32:19.324Z,22.88
2024-04-30T00:33:19.441Z,22.88
2024-04-30T00:34:19.490Z,22.88
2024-04-30T00:35:19.531Z,22.88
2024-04-30T00:36:19.666Z,22.89
2024-04-30T00:37:19.804Z,22.88
2024-04-30T00:38:19.888Z,22.88
2024-04-30T00:39:19.971Z,22.87
2024-04-30T00:40:20.120Z,22.87
2024-04-30T00:41:20.136Z,22.87
2024-04-30T00:42:20.249Z,22.88
2024-04-30T00:43:20.369Z,22.87
2024-04-30T00:44:20.491Z,22.87
2024-04-30T00:45:20.546Z,22.87
2024-04-30T00:46:20.679Z,22.88
2024-04-30T00:47:20.800Z,22.88
2024-04-30T00:48:21.789Z,22.88
2024-04-30T00:49:20.936Z,22.89
2024-04-30T00:50:20.998Z,22.89
2024-04-30T00:51:21.006Z,22.89
2024-04-30T00:52:21.100Z,22.90
2024-04-30T00:53:21.109Z,22.91
2024-04-30T00:54:21.155Z,22.91
2024-04-30T00:55:21.236Z,22.90
2024-04-30T00:56:21.304Z,22.91
2024-04-30T00:57:21.400Z,22.91
2024-04-30T00:58:21.572Z,22.90
2024-04-30T00:59:21.658Z,22.91
2024-04-30T01:00:21.697Z,22.90
2024-04-30T01:01:21.856Z,22.90
2024-04-30T01:02:21.931Z,22.90
2024-04-30T01:03:22.070Z,22.89
2024-04-30T01:04:22.130Z,22.89
2024-04-30T01:05:22.230Z,22.88
2024-04-30T01:06:22.312Z,22.88
2024-04-30T01:07:22.393Z,22.89
2024-04-30T01:08:22.552Z,22.88
2024-04-30T01:09:22.616Z,22.87
2024-04-30T01:10:22.757Z,22.86
2024-04-30T01:11:22.856Z,22.85
2024-04-30T01:12:22.969Z,22.85
2024-04-30T01:13:23.097Z,22.85
2024-04-30T01:14:23.151Z,22.84
2024-04-30T01:15:23.221Z,22.83
2024-04-30T01:16:23.363Z,22.83
2024-04-30T01:17:23.505Z,22.82
2024-04-30T01:18:24.006Z,22.83
2024-04-30T01:19:23.631Z,22.83
2024-04-30T01:20:23.617Z,22.83
2024-04-30T01:21:23.669Z,22.83
2024-04-30T01:22:23.746Z,22.82
2024-04-30T01:23:23.802Z,22.82
2024-04-30T01:24:23.814Z,22.83
2024-04-30T01:25:23.940Z,22.84
2024-04-30T01:26:24.092Z,22.84
2024-04-30T01:27:24.033Z,22.86
2024-04-30T01:28:24.045Z,22.86
2024-04-30T01:29:24.075Z,22.86
2024-04-30T01:30:24.114Z,22.85
2024-04-30T01:31:24.175Z,22.85
2024-04-30T01:32:24.247Z,22.84
2024-04-30T01:33:24.327Z,22.82
2024-04-30T01:34:24.370Z,22.82
2024-04-30T01:35:24.386Z,22.80
2024-04-30T01:36:24.496Z,22.79
2024-04-30T01:37:24.657Z,22.79
2024-04-30T01:38:24.747Z,22.77
2024-04-30T01:39:24.838Z,22.77
2024-04-30T01:40:24.917Z,22.79
2024-04-30T01:41:25.218Z,22.77
2024-04-30T01:42:25.114Z,22.77
2024-04-30T01:43:25.194Z,22.76
2024-04-30T01:44:25.296Z,22.76
2024-04-30T01:45:25.411Z,22.76
2024-04-30T01:46:25.549Z,22.75
2024-04-30T01:47:25.634Z,22.76
2024-04-30T01:48:25.813Z,22.75
2024-04-30T01:49:25.859Z,22.75
2024-04-30T01:50:25.951Z,22.74
2024-04-30T01:51:26.034Z,22.73
2024-04-30T01:52:26.219Z,22.73
2024-04-30T01:53:26.206Z,22.71
2024-04-30T01:54:26.318Z,22.70
2024-04-30T01:55:26.463Z,22.69
2024-04-30T01:56:26.539Z,22.68
2024-04-30T01:57:26.632Z,22.68
2024-04-30T01:58:26.771Z,22.67
2024-04-30T01:59:26.837Z,22.68
2024-04-30T02:00:26.931Z,22.67
2024-04-30T02:01:27.084Z,22.66
2024-04-30T02:02:27.143Z,22.67
2024-04-30T02:03:27.290Z,22.66
2024-04-30T02:04:28.806Z,22.65
2024-04-30T02:05:28.452Z,22.66
2024-04-30T02:06:27.299Z,22.65
2024-04-30T02:07:27.349Z,22.63
2024-04-30T02:08:27.318Z,22.63
2024-04-30T02:09:27.324Z,22.63
2024-04-30T02:10:27.393Z,22.63
2024-04-30T02:11:27.399Z,22.62
2024-04-30T02:12:27.356Z,22.60
2024-04-30T02:13:27.430Z,22.59
2024-04-30T02:14:27.430Z,22.57
2024-04-30T02:15:27.477Z,22.56
2024-04-30T02:16:27.777Z,22.54
2024-04-30T02:17:27.763Z,22.53
2024-04-30T02:18:27.835Z,22.53
2024-04-30T02:19:27.939Z,22.52
2024-04-30T02:20:27.992Z,22.51
2024-04-30T02:21:28.137Z,22.49
2024-04-30T02:22:28.231Z,22.47
2024-04-30T02:23:28.322Z,22.44
2024-04-30T02:24:28.415Z,22.42
2024-04-30T02:25:28.617Z,22.40
2024-04-30T02:26:28.627Z,22.39
2024-04-30T02:27:28.711Z,22.36
2024-04-30T02:28:28.897Z,22.36
2024-04-30T02:29:28.901Z,22.32
2024-04-30T02:30:29.054Z,22.28
2024-04-30T02:31:29.198Z,22.26
2024-04-30T02:32:29.250Z,22.22
2024-04-30T02:33:29.365Z,22.20
2024-04-30T02:34:29.476Z,22.18
2024-04-30T02:35:29.517Z,22.17
2024-04-30T02:36:29.621Z,22.14
2024-04-30T02:37:29.793Z,22.09
2024-04-30T02:38:29.836Z,22.09
2024-04-30T02:39:29.929Z,22.05
2024-04-30T02:40:30.024Z,22.03
2024-04-30T02:41:30.116Z,22.01
2024-04-30T02:42:30.222Z,21.96
2024-04-30T02:43:30.392Z,21.94
2024-04-30T02:44:30.414Z,21.92
2024-04-30T02:45:30.470Z,21.92
2024-04-30T02:46:30.661Z,21.91
2024-04-30T02:47:30.743Z,21.89
2024-04-30T02:48:30.748Z,21.89
2024-04-30T02:49:30.910Z,21.89
2024-04-30T02:50:30.885Z,21.89
2024-04-30T02:51:30.956Z,21.87
2024-04-30T02:52:31.190Z,21.87
2024-04-30T02:53:31.097Z,21.87
2024-04-30T02:54:31.169Z,21.87
2024-04-30T02:55:31.329Z,21.86
2024-04-30T02:56:31.303Z,21.85
2024-04-30T02:57:31.373Z,21.84
2024-04-30T02:58:31.594Z,21.83
2024-04-30T02:59:31.528Z,21.79
2024-04-30T03:00:31.692Z,21.80
2024-04-30T03:01:31.696Z,21.78
2024-04-30T03:02:31.733Z,21.80
2024-04-30T03:03:31.851Z,21.78
2024-04-30T03:04:31.901Z,21.77
2024-04-30T03:05:31.903Z,21.77
2024-04-30T03:06:31.984Z,21.77
2024-04-30T03:07:32.192Z,21.77
2024-04-30T03:08:32.133Z,21.76
2024-04-30T03:09:32.199Z,21.75
2024-04-30T03:10:32.346Z,21.74
2024-04-30T03:11:32.432Z,21.74
2024-04-30T03:12:32.349Z,21.72
2024-04-30T03:13:32.475Z,21.71
2024-04-30T03:14:32.538Z,21.68
2024-04-30T03:15:32.582Z,21.67
2024-04-30T03:16:32.792Z,21.66
2024-04-30T03:17:32.785Z,21.68
2024-04-30T03:18:32.828Z,21.66
2024-04-30T03:19:32.945Z,21.66
2024-04-30T03:20:32.954Z,21.64
2024-04-30T03:21:33.012Z,21.60
2024-04-30T03:22:33.133Z,21.59
2024-04-30T03:23:33.166Z,21.60
2024-04-30T03:24:33.311Z,21.58
2024-04-30T03:25:33.370Z,21.57
2024-04-30T03:26:33.387Z,21.56
2024-04-30T03:27:33.442Z,21.56
2024-04-30T03:28:33.565Z,21.56
2024-04-30T03:29:33.574Z,21.56
2024-04-30T03:30:33.642Z,21.55
2024-04-30T03:31:34.017Z,21.52
2024-04-30T03:32:33.866Z,21.50
2024-04-30T03:33:33.917Z,21.47
2024-04-30T03:34:33.956Z,21.43
2024-04-30T03:35:33.980Z,21.44
2024-04-30T03:36:34.045Z,21.41
2024-04-30T03:37:34.353Z,21.39
2024-04-30T03:38:34.200Z,21.38
2024-04-30T03:39:34.239Z,21.36
2024-04-30T03:40:34.411Z,21.33
2024-04-30T03:41:34.392Z,21.32
2024-04-30T03:42:34.451Z,21.28
2024-04-30T03:43:34.594Z,21.28
2024-04-30T03:44:34.584Z,21.27
2024-04-30T03:45:34.650Z,21.25
2024-04-30T03:46:34.910Z,21.25
2024-04-30T03:47:34.863Z,21.23
2024-04-30T03:48:34.920Z,21.22
2024-04-30T03:49:35.102Z,21.21
2024-04-30T03:50:35.033Z,21.21
2024-04-30T03:51:35.146Z,21.19
2024-04-30T03:52:35.270Z,21.17
2024-04-30T03:53:35.305Z,21.15
2024-04-30T03:54:35.362Z,21.15
2024-04-30T03:55:35.503Z,21.12
2024-04-30T03:56:35.508Z,21.11
2024-04-30T03:57:35.614Z,21.10
2024-04-30T03:58:35.758Z,21.08
2024-04-30T03:59:35.800Z,21.07
2024-04-30T04:00:35.884Z,21.06
2024-04-30T04:01:35.980Z,21.05
2024-04-30T04:02:36.114Z,21.04
2024-04-30T04:03:36.172Z,21.04
2024-04-30T04:04:36.287Z,21.04
2024-04-30T04:05:36.326Z,21.03
2024-04-30T04:06:36.392Z,21.03
2024-04-30T04:07:36.575Z,21.03
2024-04-30T04:08:36.592Z,21.02
2024-04-30T04:09:36.665Z,21.01
2024-04-30T04:10:36.868Z,21.01
2024-04-30T04:11:36.908Z,21.03
2024-04-30T04:12:36.947Z,21.02
2024-04-30T04:13:37.073Z,21.00
2024-04-30T04:14:37.149Z,21.01
2024-04-30T04:15:37.231Z,20.98
2024-04-30T04:16:37.416Z,20.97
2024-04-30T04:17:37.480Z,20.96
2024-04-30T04:18:37.580Z,20.95
2024-04-30T04:19:37.730Z,20.94
2024-04-30T04:20:37.719Z,20.94
2024-04-30T04:21:37.781Z,20.95
2024-04-30T04:22:37.943Z,20.94
2024-04-30T04:23:37.992Z,20.95
2024-04-30T04:24:38.087Z,20.93
2024-04-30T04:25:38.187Z,20.94
2024-04-30T04:26:45.362Z,20.91
2024-04-30T04:27:45.330Z,20.91
2024-04-30T04:28:45.341Z,20.91
2024-04-30T04:29:45.377Z,20.93
2024-04-30T04:30:45.392Z,20.94
2024-04-30T04:31:52.628Z,20.90
2024-04-30T04:32:52.620Z,20.92
2024-04-30T04:33:52.572Z,20.91
2024-04-30T04:34:52.562Z,20.91
2024-04-30T04:35:52.590Z,20.91
2024-04-30T04:36:52.549Z,20.89
2024-04-30T04:37:52.587Z,20.87
2024-04-30T04:38:52.567Z,20.87
2024-04-30T04:39:52.589Z,20.85
2024-04-30T04:40:52.582Z,20.85
2024-04-30T04:41:52.561Z,20.84
2024-04-30T04:42:52.569Z,20.84
2024-04-30T04:43:52.591Z,20.85
2024-04-30T04:44:52.582Z,20.85
2024-04-30T04:45:52.574Z,20.82
2024-04-30T04:46:52.587Z,20.80
2024-04-30T04:47:52.683Z,20.80
2024-04-30T04:48:52.589Z,20.77
2024-04-30T04:49:52.601Z,20.76
2024-04-30T04:50:52.580Z,20.76
2024-04-30T04:51:52.558Z,20.74
2024-04-30T04:52:52.602Z,20.72
2024-04-30T04:53:52.604Z,20.72
2024-04-30T04:54:52.582Z,20.71
2024-04-30T04:55:52.595Z,20.72
2024-04-30T04:56:52.587Z,20.70
2024-04-30T04:57:52.600Z,20.68
2024-04-30T04:58:52.607Z,20.70
2024-04-30T04:59:52.613Z,20.70
2024-04-30T05:00:52.743Z,20.72
2024-04-30T05:01:52.787Z,20.72
2024-04-30T05:02:52.656Z,20.72
2024-04-30T05:03:52.658Z,20.71
2024-04-30T05:04:52.647Z,20.71
2024-04-30T05:05:52.591Z,20.71
2024-04-30T05:06:54.575Z,20.73
2024-04-30T05:07:52.733Z,20.72
2024-04-30T05:08:52.783Z,20.74
2024-04-30T05:09:52.811Z,20.75
2024-04-30T05:10:52.845Z,20.74
2024-04-30T05:11:52.838Z,20.76
2024-04-30T05:12:52.838Z,20.74
2024-04-30T05:13:52.879Z,20.76
2024-04-30T05:14:55.655Z,20.74
2024-04-30T05:15:52.924Z,20.74
2024-04-30T05:16:52.980Z,20.74
2024-04-30T05:18:19.534Z,20.72
2024-04-30T05:19:19.562Z,20.75
2024-04-30T05:20:19.522Z,20.75
2024-04-30T05:21:19.520Z,20.76
2024-04-30T05:22:19.565Z,20.78
2024-04-30T05:23:19.515Z,20.80
2024-04-30T05:24:19.553Z,20.81
2024-04-30T05:25:19.537Z,20.82
2024-04-30T05:26:19.516Z,20.82
2024-04-30T05:27:19.512Z,20.80
2024-04-30T05:28:19.568Z,20.81
2024-04-30T05:29:19.523Z,20.81
2024-04-30T05:30:19.517Z,20.81
2024-04-30T05:31:19.578Z,20.82
2024-04-30T05:32:19.502Z,20.81
2024-04-30T05:33:19.601Z,20.84
2024-04-30T05:34:19.576Z,20.84
2024-04-30T05:35:19.503Z,20.85
2024-04-30T05:36:19.525Z,20.87
2024-04-30T05:37:19.617Z,20.88
2024-04-30T05:38:19.597Z,20.91
2024-04-30T05:39:19.567Z,20.94
2024-04-30T05:40:19.650Z,20.98
2024-04-30T05:41:19.573Z,20.99
2024-04-30T05:42:19.560Z,20.99
2024-04-30T05:43:19.718Z,21.00
2024-04-30T05:44:19.550Z,21.03
2024-04-30T05:45:19.582Z,21.04
2024-04-30T05:46:19.716Z,21.05
2024-04-30T05:47:19.575Z,21.07
2024-04-30T05:48:19.617Z,21.11
2024-04-30T05:49:19.605Z,21.15
2024-04-30T05:50:19.587Z,21.22
2024-04-30T05:51:19.578Z,21.27
2024-04-30T05:52:19.609Z,21.33
2024-04-30T05:53:19.585Z,21.36
2024-04-30T05:54:19.661Z,21.38
2024-04-30T05:55:19.751Z,21.35
2024-04-30T05:56:19.815Z,21.33
2024-04-30T05:57:19.879Z,21.34
2024-04-30T05:58:19.989Z,21.35
2024-04-30T05:59:20.092Z,21.34
2024-04-30T06:00:20.135Z,21.37
2024-04-30T06:01:20.302Z,21.37
2024-04-30T06:02:20.283Z,21.36
2024-04-30T06:03:20.421Z,21.35
2024-04-30T06:04:20.571Z,21.33
2024-04-30T06:05:20.691Z,21.34
2024-04-30T06:06:20.666Z,21.37
2024-04-30T06:07:20.748Z,21.39
2024-04-30T06:08:20.789Z,21.38
2024-04-30T06:09:20.883Z,21.38
2024-04-30T06:10:21.016Z,21.39
2024-04-30T06:11:21.144Z,21.38
2024-04-30T06:12:21.138Z,21.36
2024-04-30T06:13:21.266Z,21.33
2024-04-30T06:14:23.997Z,21.26
2024-04-30T06:15:21.500Z,21.24
2024-04-30T06:16:21.345Z,21.21
2024-04-30T06:17:21.355Z,21.20
2024-04-30T06:18:21.402Z,21.20
2024-04-30T06:19:21.373Z,21.21
2024-04-30T06:20:21.307Z,21.25
2024-04-30T06:21:30.354Z,21.31
2024-04-30T06:22:22.377Z,21.36
2024-04-30T06:23:21.329Z,21.41
2024-04-30T06:24:21.313Z,21.47
2024-04-30T06:25:21.347Z,21.52
2024-04-30T06:26:21.310Z,21.56
2024-04-30T06:27:21.351Z,21.59
2024-04-30T06:28:21.364Z,21.63
2024-04-30T06:29:21.378Z,21.68
2024-04-30T06:30:21.326Z,21.73
2024-04-30T06:31:21.416Z,21.78
2024-04-30T06:32:21.322Z,21.81
2024-04-30T06:33:21.463Z,21.84
2024-04-30T06:34:21.460Z,21.85
2024-04-30T06:35:21.506Z,21.88
2024-04-30T06:36:21.612Z,21.90
2024-04-30T06:37:21.707Z,21.94
2024-04-30T06:38:21.737Z,21.97
2024-04-30T06:39:21.842Z,21.98
2024-04-30T06:40:23.389Z,21.99
2024-04-30T06:41:21.902Z,21.99
2024-04-30T06:42:21.904Z,22.01
2024-04-30T06:43:21.941Z,22.04
2024-04-30T06:44:21.971Z,22.05
2024-04-30T06:45:22.023Z,22.08
2024-04-30T06:46:21.953Z,22.14
2024-04-30T06:47:22.010Z,22.21
2024-04-30T06:48:22.002Z,22.27
2024-04-30T06:49:24.124Z,22.32
2024-04-30T06:50:21.946Z,22.34
2024-04-30T06:51:21.966Z,22.36
2024-04-30T06:52:21.958Z,22.41
2024-04-30T06:53:21.931Z,22.47
2024-04-30T06:54:21.975Z,22.50
2024-04-30T06:55:21.997Z,22.51
2024-04-30T06:56:21.958Z,22.53
2024-04-30T06:57:22.010Z,22.55
2024-04-30T06:58:21.972Z,22.58
2024-04-30T06:59:21.972Z,22.63
2024-04-30T07:00:21.970Z,22.68
2024-04-30T07:01:22.021Z,22.76
2024-04-30T07:02:21.967Z,22.82
2024-04-30T07:03:21.941Z,22.88
2024-04-30T07:04:22.027Z,22.95
2024-04-30T07:05:22.020Z,22.99
2024-04-30T07:06:21.963Z,23.04
2024-04-30T07:07:21.977Z,23.08
2024-04-30T07:08:21.969Z,23.11
2024-04-30T07:09:21.986Z,23.15
2024-04-30T07:10:22.016Z,23.18
2024-04-30T07:11:21.990Z,23.21
2024-04-30T07:12:21.969Z,23.25
2024-04-30T07:13:21.990Z,23.29
2024-04-30T07:14:22.016Z,23.31
2024-04-30T07:15:21.970Z,23.34
2024-04-30T07:16:22.006Z,23.38
2024-04-30T07:17:22.050Z,23.41
2024-04-30T07:18:22.028Z,23.44
2024-04-30T07:19:22.024Z,23.46
2024-04-30T07:20:21.980Z,23.49
2024-04-30T07:21:21.962Z,23.52
2024-04-30T07:22:22.036Z,23.55
2024-04-30T07:23:21.975Z,23.57
2024-04-30T07:24:22.038Z,23.59
2024-04-30T07:25:22.013Z,23.61
2024-04-30T07:26:21.992Z,23.63
2024-04-30T07:27:22.084Z,23.65
2024-04-30T07:28:22.202Z,23.67
2024-04-30T07:29:22.221Z,23.68
2024-04-30T07:30:22.264Z,23.70
2024-04-30T07:31:22.408Z,23.71
2024-04-30T07:32:22.507Z,23.72
2024-04-30T07:33:22.586Z,23.73
2024-04-30T07:34:22.818Z,23.75
2024-04-30T07:35:22.716Z,23.77
2024-04-30T07:36:22.779Z,23.78
2024-04-30T07:37:22.908Z,23.79
2024-04-30T07:38:22.879Z,23.81
2024-04-30T07:39:22.983Z,23.83
2024-04-30T07:40:23.087Z,23.85
2024-04-30T07:41:23.105Z,23.86
2024-04-30T07:42:23.143Z,23.88
2024-04-30T07:43:23.263Z,23.90
2024-04-30T07:44:23.257Z,23.91
2024-04-30T07:45:23.319Z,23.93
2024-04-30T07:46:23.435Z,23.92
2024-04-30T07:47:23.582Z,23.92
2024-04-30T07:48:23.746Z,23.92
2024-04-30T07:49:23.644Z,23.91
2024-04-30T07:50:23.664Z,23.89
2024-04-30T07:51:23.713Z,23.87
2024-04-30T07:52:23.833Z,23.84
2024-04-30T07:53:23.863Z,23.81
2024-04-30T07:54:23.990Z,23.78
2024-04-30T07:55:24.050Z,23.76
2024-04-30T07:56:24.106Z,23.73
2024-04-30T07:57:24.201Z,23.71
2024-04-30T07:58:24.293Z,23.69
2024-04-30T07:59:24.349Z,23.66
2024-04-30T08:00:24.439Z,23.66
2024-04-30T08:01:24.609Z,23.64
2024-04-30T08:02:24.709Z,23.63
2024-04-30T08:03:24.782Z,23.62
2024-04-30T08:04:24.840Z,23.60
2024-04-30T08:05:24.891Z,23.59
2024-04-30T08:06:25.004Z,23.58
2024-04-30T08:07:25.090Z,23.57
2024-04-30T08:08:25.179Z,23.57
2024-04-30T08:09:25.268Z,23.56
2024-04-30T08:10:25.365Z,23.55
2024-04-30T08:11:25.433Z,23.54
2024-04-30T08:12:25.542Z,23.53
2024-04-30T08:13:25.667Z,23.53
2024-04-30T08:14:25.778Z,23.53
2024-04-30T08:15:25.837Z,23.52
2024-04-30T08:16:25.978Z,23.52
2024-04-30T08:17:26.128Z,23.52
2024-04-30T08:18:26.121Z,23.51
2024-04-30T08:19:26.261Z,23.51
2024-04-30T08:20:26.321Z,23.51
2024-04-30T08:21:26.482Z,23.50
2024-04-30T08:22:26.580Z,23.50
2024-04-30T08:23:26.594Z,23.50
2024-04-30T08:24:26.745Z,23.49
2024-04-30T08:25:26.814Z,23.50
2024-04-30T08:26:26.912Z,23.50
2024-04-30T08:27:27.423Z,23.49
2024-04-30T08:28:27.113Z,23.50
2024-04-30T08:29:27.230Z,23.49
2024-04-30T08:30:27.305Z,23.49
2024-04-30T08:31:27.447Z,23.49
2024-04-30T08:32:27.599Z,23.49
2024-04-30T08:33:27.632Z,23.49
2024-04-30T08:34:27.726Z,23.49
2024-04-30T08:35:27.806Z,23.49
2024-04-30T08:36:30.367Z,23.49
2024-04-30T08:38:27.942Z,23.49
2024-04-30T08:39:27.981Z,23.49
2024-04-30T08:40:27.959Z,23.50
2024-04-30T08:41:27.992Z,23.51
2024-04-30T08:42:27.942Z,23.53
2024-04-30T08:43:28.004Z,23.55
2024-04-30T08:44:27.926Z,23.57
2024-04-30T08:45:27.907Z,23.57
2024-04-30T08:46:27.980Z,23.57
2024-04-30T08:47:28.018Z,23.57
2024-04-30T08:48:27.914Z,23.58
2024-04-30T08:49:33.967Z,23.61
2024-04-30T08:50:29.036Z,23.62
2024-04-30T08:51:27.920Z,23.64
2024-04-30T08:52:28.002Z,23.67
2024-04-30T08:53:27.934Z,23.70
2024-04-30T08:54:27.929Z,23.74
2024-04-30T08:55:27.964Z,23.78
2024-04-30T08:56:27.933Z,23.79
2024-04-30T08:57:27.929Z,23.81
2024-04-30T08:58:27.995Z,23.85
2024-04-30T08:59:27.965Z,23.88
2024-04-30T09:00:27.961Z,23.92
2024-04-30T09:01:27.958Z,23.94
2024-04-30T09:02:27.971Z,23.99
2024-04-30T09:03:28.009Z,24.02
2024-04-30T09:04:28.053Z,24.06
2024-04-30T09:05:27.995Z,24.09
2024-04-30T09:06:28.106Z,24.13
2024-04-30T09:07:28.208Z,24.16
2024-04-30T09:08:28.218Z,24.18
2024-04-30T09:09:28.290Z,24.22
2024-04-30T09:10:28.369Z,24.24
2024-04-30T09:11:28.497Z,24.28
2024-04-30T09:12:28.473Z,24.29
2024-04-30T09:13:28.602Z,24.31
2024-04-30T09:14:28.635Z,24.33
2024-04-30T09:15:28.682Z,24.36
2024-04-30T09:16:28.734Z,24.37
2024-04-30T09:17:29.042Z,24.38
2024-04-30T09:18:28.956Z,24.41
2024-04-30T09:19:28.967Z,24.43
2024-04-30T09:20:28.972Z,24.44
2024-04-30T09:21:29.066Z,24.46
2024-04-30T09:22:29.215Z,24.47
2024-04-30T09:23:29.262Z,24.49
2024-04-30T09:24:29.286Z,24.50
2024-04-30T09:25:29.422Z,24.51
2024-04-30T09:26:29.431Z,24.50
2024-04-30T09:27:29.509Z,24.52
2024-04-30T09:28:29.598Z,24.53
2024-04-30T09:29:29.697Z,24.54
2024-04-30T09:30:29.772Z,24.54
2024-04-30T09:31:29.842Z,24.56
2024-04-30T09:32:30.033Z,24.58
2024-04-30T09:33:30.250Z,24.61
2024-04-30T09:34:30.151Z,24.64
2024-04-30T09:35:30.244Z,24.65
2024-04-30T09:36:30.344Z,24.67
2024-04-30T09:37:30.496Z,24.69
2024-04-30T09:38:30.576Z,24.68
2024-04-30T09:39:30.680Z,24.69
2024-04-30T09:40:30.873Z,24.70
2024-04-30T09:41:30.871Z,24.69
2024-04-30T09:42:30.973Z,24.66
2024-04-30T09:43:31.178Z,24.69
2024-04-30T09:44:31.240Z,24.70
2024-04-30T09:45:31.292Z,24.72
2024-04-30T09:46:31.539Z,24.73
2024-04-30T09:47:31.591Z,24.75
2024-04-30T09:48:31.658Z,24.77
2024-04-30T09:49:31.824Z,24.79
2024-04-30T09:50:31.892Z,24.82
2024-04-30T09:51:31.992Z,24.82
2024-04-30T09:52:32.181Z,24.86
2024-04-30T09:53:32.266Z,24.88
2024-04-30T09:54:32.387Z,24.90
2024-04-30T09:55:32.505Z,24.91
2024-04-30T09:56:32.562Z,24.93
2024-04-30T09:57:32.694Z,24.95
2024-04-30T09:58:32.899Z,24.96
2024-04-30T09:59:33.053Z,24.97
2024-04-30T10:00:33.239Z,24.98
2024-04-30T10:01:33.270Z,24.99
2024-04-30T10:02:33.331Z,25.00
2024-04-30T10:03:33.428Z,25.02
2024-04-30T10:04:33.636Z,25.04
2024-04-30T10:05:33.642Z,25.06
2024-04-30T10:06:33.791Z,25.09
2024-04-30T10:07:33.971Z,25.11
2024-04-30T10:08:33.992Z,25.13
2024-04-30T10:09:34.145Z,25.14
2024-04-30T10:10:34.422Z,25.16
2024-04-30T10:11:34.393Z,25.18
2024-04-30T10:12:34.443Z,25.20
2024-04-30T10:13:34.561Z,25.21
2024-04-30T10:14:34.690Z,25.22
2024-04-30T10:15:34.756Z,25.24
2024-04-30T10:16:34.933Z,25.25
2024-04-30T10:17:35.093Z,25.26
2024-04-30T10:18:35.135Z,25.28
2024-04-30T10:19:35.261Z,25.29
2024-04-30T10:20:35.302Z,25.32
2024-04-30T10:21:35.399Z,25.34
2024-04-30T10:22:35.579Z,25.37
2024-04-30T10:23:35.599Z,25.39
2024-04-30T10:24:35.735Z,25.41
2024-04-30T10:25:35.890Z,25.43
2024-04-30T10:26:35.891Z,25.45
2024-04-30T10:27:36.007Z,25.46
2024-04-30T10:28:36.153Z,25.48
2024-04-30T10:29:36.197Z,25.48
2024-04-30T10:30:36.341Z,25.50
2024-04-30T10:31:36.407Z,25.52
2024-04-30T10:32:36.506Z,25.54
2024-04-30T10:33:36.631Z,25.54
2024-04-30T10:34:36.693Z,25.55
2024-04-30T10:35:36.753Z,25.54
2024-04-30T10:36:36.838Z,25.55
2024-04-30T10:37:37.123Z,25.56
2024-04-30T10:38:37.024Z,25.56
2024-04-30T10:39:37.124Z,25.56
2024-04-30T10:40:37.227Z,25.57
2024-04-30T10:41:37.279Z,25.56
2024-04-30T10:42:37.443Z,25.54
2024-04-30T10:43:37.491Z,25.53
2024-04-30T10:44:37.550Z,25.52
2024-04-30T10:45:37.672Z,25.51
2024-04-30T10:46:37.823Z,25.48
2024-04-30T10:47:37.966Z,25.47
2024-04-30T10:48:38.064Z,25.46
2024-04-30T10:49:38.230Z,25.45
2024-04-30T10:50:38.256Z,25.43
2024-04-30T10:51:38.370Z,25.41
2024-04-30T10:52:38.522Z,25.40
2024-04-30T10:53:38.601Z,25.39
2024-04-30T10:54:38.718Z,25.38
2024-04-30T10:55:38.893Z,25.36
2024-04-30T10:56:39.028Z,25.35
2024-04-30T10:57:39.143Z,25.35
2024-04-30T10:58:39.262Z,25.32
2024-04-30T10:59:39.357Z,25.31
2024-04-30T11:00:39.506Z,25.30
2024-04-30T11:01:39.675Z,25.30
2024-04-30T11:02:39.774Z,25.29
2024-04-30T11:03:39.834Z,25.28
2024-04-30T11:04:40.091Z,25.27
2024-04-30T11:05:40.817Z,25.26
2024-04-30T11:06:40.108Z,25.24
2024-04-30T11:07:40.272Z,25.23
2024-04-30T11:08:40.162Z,25.23
2024-04-30T11:09:40.200Z,25.22
2024-04-30T11:10:40.266Z,25.21
2024-04-30T11:11:40.291Z,25.20
2024-04-30T11:12:40.302Z,25.20
2024-04-30T11:13:40.380Z,25.19
2024-04-30T11:14:40.433Z,25.18
2024-04-30T11:15:40.514Z,25.17
2024-04-30T11:16:40.676Z,25.17
2024-04-30T11:17:40.792Z,25.16
2024-04-30T11:18:40.891Z,25.15
2024-04-30T11:19:41.053Z,25.14
2024-04-30T11:20:41.092Z,25.14
2024-04-30T11:21:41.190Z,25.13
2024-04-30T11:22:42.342Z,25.12
2024-04-30T11:23:41.435Z,25.12
2024-04-30T11:24:41.554Z,25.11
2024-04-30T11:25:41.710Z,25.10
2024-04-30T11:26:41.762Z,25.10
2024-04-30T11:27:41.844Z,25.09
2024-04-30T11:28:46.536Z,25.08
2024-04-30T11:29:43.080Z,25.08
2024-04-30T11:30:42.003Z,25.07
2024-04-30T11:31:42.046Z,25.07
2024-04-30T11:32:42.096Z,25.06
2024-04-30T11:33:42.050Z,25.06
2024-04-30T11:34:42.058Z,25.05
2024-04-30T11:35:41.988Z,25.05
2024-04-30T11:36:42.010Z,25.04
2024-04-30T11:37:42.215Z,25.04
2024-04-30T11:38:42.053Z,25.03
2024-04-30T11:39:42.082Z,25.03
2024-04-30T11:40:42.124Z,25.02
2024-04-30T11:41:48.714Z,25.03
2024-04-30T11:42:45.176Z,25.03
2024-04-30T11:43:42.063Z,25.02
2024-04-30T11:44:42.011Z,25.01
2024-04-30T11:45:42.019Z,25.01
2024-04-30T11:46:42.134Z,25.02
2024-04-30T11:47:42.199Z,25.00
2024-04-30T11:48:42.104Z,25.00
2024-04-30T11:49:42.222Z,25.00
2024-04-30T11:50:42.025Z,25.01
2024-04-30T11:51:42.040Z,25.01
2024-04-30T11:52:42.260Z,25.01
2024-04-30T11:53:42.034Z,25.01
2024-04-30T11:54:42.033Z,24.99
2024-04-30T11:55:42.138Z,24.99
2024-04-30T11:56:42.086Z,24.99
2024-04-30T11:57:42.038Z,24.99
2024-04-30T11:58:42.097Z,25.00
2024-04-30T11:59:42.140Z,24.99
2024-04-30T12:00:42.075Z,25.00
2024-04-30T12:01:42.072Z,25.00
2024-04-30T12:02:42.109Z,25.00
2024-04-30T12:03:42.059Z,25.01
2024-04-30T12:04:42.142Z,25.00
2024-04-30T12:05:42.176Z,25.00
2024-04-30T12:06:42.052Z,25.01
2024-04-30T12:07:42.150Z,25.01
2024-04-30T12:08:42.028Z,25.01
2024-04-30T12:09:42.068Z,25.01
2024-04-30T12:10:42.151Z,25.00
2024-04-30T12:11:42.204Z,25.00
2024-04-30T12:12:42.299Z,25.00
2024-04-30T12:13:42.401Z,25.00
2024-04-30T12:14:42.514Z,25.00
2024-04-30T12:15:42.616Z,25.00
2024-04-30T12:16:46.903Z,25.00
2024-04-30T12:17:43.821Z,24.99
2024-04-30T12:18:42.740Z,24.99
2024-04-30T12:19:42.903Z,24.99
2024-04-30T12:20:42.773Z,24.99
2024-04-30T12:21:42.753Z,24.99
2024-04-30T12:22:42.827Z,24.99
2024-04-30T12:23:44.096Z,24.99
2024-04-30T12:24:42.778Z,24.99
2024-04-30T12:25:42.928Z,24.99
2024-04-30T12:26:42.790Z,24.99
2024-04-30T12:27:42.823Z,24.98
2024-04-30T12:28:42.948Z,24.99
2024-04-30T12:29:43.285Z,25.00
2024-04-30T12:30:42.878Z,24.99
2024-04-30T12:31:43.071Z,25.00
2024-04-30T12:32:43.054Z,25.00
2024-04-30T12:33:43.360Z,24.99
2024-04-30T12:34:43.380Z,25.00
2024-04-30T12:35:43.364Z,24.99
2024-04-30T12:36:43.699Z,25.00
2024-04-30T12:37:43.589Z,25.00
2024-04-30T12:38:43.716Z,25.00
2024-04-30T12:39:43.834Z,24.99
2024-04-30T12:40:44.001Z,24.99
2024-04-30T12:41:44.059Z,24.99
2024-04-30T12:42:44.150Z,24.99
2024-04-30T12:43:44.348Z,24.99
2024-04-30T12:44:44.388Z,25.00
2024-04-30T12:45:44.491Z,25.00
2024-04-30T12:46:44.652Z,25.00
2024-04-30T12:47:44.768Z,25.00
2024-04-30T12:48:44.874Z,25.00
2024-04-30T12:49:45.001Z,24.99
2024-04-30T12:50:45.037Z,24.99
2024-04-30T12:51:45.194Z,24.99
2024-04-30T12:52:45.405Z,24.99
2024-04-30T12:53:45.394Z,24.99
2024-04-30T12:54:45.561Z,24.98